createdAt,value
2023-03-10T00:00:20.896Z,17.05
2023-03-10T00:01:33.037Z,15.82
2023-03-10T00:02:35.535Z,14.18
2023-03-10T00:03:37.432Z,14.12
2023-03-10T00:04:39.274Z,13.87
2023-03-10T00:05:41.174Z,14.12
2023-03-10T00:06:43.119Z,13.67
2023-03-10T00:07:46.094Z,13.78
2023-03-10T00:08:48.586Z,15.07
2023-03-10T00:09:50.688Z,15.25
2023-03-10T00:10:52.497Z,15.28
2023-03-10T00:11:54.340Z,15.10
2023-03-10T00:12:56.108Z,14.33
2023-03-10T00:13:57.970Z,15.42
2023-03-10T00:14:59.866Z,14.48
2023-03-10T00:16:01.791Z,14.55
2023-03-10T00:17:04.035Z,14.82
2023-03-10T00:18:05.961Z,14.40
2023-03-10T00:19:08.029Z,13.82
2023-03-10T00:20:12.467Z,13.88
2023-03-10T00:21:15.823Z,13.98
2023-03-10T00:22:17.775Z,14.73
2023-03-10T00:23:19.968Z,13.53
2023-03-10T00:24:21.891Z,14.22
2023-03-10T00:25:23.776Z,14.27
2023-03-10T00:26:28.050Z,14.30
2023-03-10T00:27:30.014Z,14.28
2023-03-10T00:28:32.125Z,14.48
2023-03-10T00:29:33.977Z,14.45
2023-03-10T00:30:35.824Z,14.43
2023-03-10T00:31:38.547Z,14.47
2023-03-10T00:32:40.598Z,15.13
2023-03-10T00:33:42.815Z,14.78
2023-03-10T00:34:44.726Z,14.97
2023-03-10T00:35:46.551Z,15.95
2023-03-10T00:36:48.342Z,16.73
2023-03-10T00:37:50.167Z,16.33
2023-03-10T00:38:52.981Z,17.23
2023-03-10T00:39:55.698Z,16.70
2023-03-10T00:41:01.655Z,16.60
2023-03-10T00:42:03.586Z,15.43
2023-03-10T00:43:05.368Z,16.03
2023-03-10T00:44:09.510Z,16.00
2023-03-10T00:45:11.628Z,16.08
2023-03-10T00:46:13.918Z,15.48
2023-03-10T00:47:16.114Z,15.15
2023-03-10T00:48:17.956Z,14.82
2023-03-10T00:49:19.853Z,14.87
2023-03-10T00:50:21.614Z,15.08
2023-03-10T00:51:23.450Z,15.15
2023-03-10T00:52:25.325Z,15.27
2023-03-10T00:53:27.202Z,14.82
2023-03-10T00:54:28.957Z,14.82
2023-03-10T00:55:30.781Z,14.38
2023-03-10T00:56:32.650Z,14.87
2023-03-10T00:57:35.665Z,13.08
2023-03-10T00:58:37.977Z,14.08
2023-03-10T00:59:49.895Z,13.90
2023-03-10T01:00:52.628Z,14.32
2023-03-10T01:01:54.698Z,13.73
2023-03-10T01:02:56.707Z,14.08
2023-03-10T01:04:04.807Z,14.08
2023-03-10T01:05:06.780Z,13.07
2023-03-10T01:06:09.014Z,13.32
2023-03-10T01:07:10.778Z,13.00
2023-03-10T01:08:13.273Z,13.45
2023-03-10T01:09:15.260Z,13.27
2023-03-10T01:10:18.171Z,13.17
2023-03-10T01:11:22.865Z,12.97
2023-03-10T01:12:24.649Z,13.02
2023-03-10T01:13:26.415Z,13.15
2023-03-10T01:14:28.299Z,13.48
2023-03-10T01:15:30.146Z,12.95
2023-03-10T01:16:32.303Z,13.20
2023-03-10T01:17:34.077Z,12.30
2023-03-10T01:18:36.301Z,12.88
2023-03-10T01:19:38.067Z,13.18
2023-03-10T01:20:41.800Z,13.42
2023-03-10T01:21:44.609Z,11.98
2023-03-10T01:22:46.385Z,12.07
2023-03-10T01:23:48.568Z,11.73
2023-03-10T01:24:50.477Z,12.17
2023-03-10T01:25:53.047Z,11.98
2023-03-10T01:26:54.921Z,11.57
2023-03-10T01:27:56.791Z,12.18
2023-03-10T01:28:59.072Z,11.35
2023-03-10T01:30:00.925Z,10.52
2023-03-10T01:31:05.005Z,10.52
2023-03-10T01:32:07.167Z,10.45
2023-03-10T01:33:10.454Z,10.15
2023-03-10T01:34:12.254Z,9.77
2023-03-10T01:35:14.032Z,10.02
2023-03-10T01:36:19.124Z,9.93
2023-03-10T01:37:21.442Z,10.15
2023-03-10T01:38:23.736Z,10.60
2023-03-10T01:39:25.556Z,10.07
2023-03-10T01:40:27.564Z,10.23
2023-03-10T01:41:29.445Z,10.12
2023-03-10T01:42:32.104Z,9.95
2023-03-10T01:43:34.650Z,10.52
2023-03-10T01:44:36.530Z,10.65
2023-03-10T01:45:38.313Z,10.48
2023-03-10T01:46:43.083Z,10.90
2023-03-10T01:47:45.401Z,11.30
2023-03-10T01:48:47.208Z,11.20
2023-03-10T01:49:49.073Z,11.75
2023-03-10T01:50:54.179Z,10.82
2023-03-10T01:52:01.577Z,10.83
2023-03-10T01:53:03.677Z,11.28
2023-03-10T01:54:10.145Z,10.68
2023-03-10T01:55:17.763Z,11.33
2023-03-10T01:56:20.182Z,11.62
2023-03-10T01:57:27.874Z,11.83
2023-03-10T01:58:35.421Z,11.82
2023-03-10T01:59:37.204Z,11.18
2023-03-10T02:00:40.910Z,11.35
2023-03-10T02:01:42.970Z,11.63
2023-03-10T02:03:24.964Z,11.38
2023-03-10T02:04:39.292Z,11.32
2023-03-10T02:06:02.944Z,11.73
2023-03-10T02:07:06.451Z,11.07
2023-03-10T02:08:10.134Z,11.40
2023-03-10T02:09:12.482Z,11.85
2023-03-10T02:10:15.443Z,11.93
2023-03-10T02:11:17.643Z,11.43
2023-03-10T02:12:20.612Z,12.57
2023-03-10T02:13:22.756Z,12.40
2023-03-10T02:14:24.631Z,12.50
2023-03-10T02:15:26.553Z,12.43
2023-03-10T02:16:28.475Z,12.50
2023-03-10T02:17:30.655Z,11.83
2023-03-10T02:18:32.661Z,13.63
2023-03-10T02:19:40.579Z,13.05
2023-03-10T02:21:06.969Z,13.13
2023-03-10T02:22:10.976Z,13.82
2023-03-10T02:23:23.181Z,13.33
2023-03-10T02:24:35.274Z,13.12
2023-03-10T02:25:49.868Z,13.35
2023-03-10T02:27:13.709Z,13.28
2023-03-10T02:28:16.093Z,13.90
2023-03-10T02:29:30.555Z,13.85
2023-03-10T02:30:36.477Z,14.03
2023-03-10T02:31:38.850Z,14.08
2023-03-10T02:32:45.011Z,13.33
2023-03-10T02:33:47.073Z,13.97
2023-03-10T02:34:49.110Z,13.80
2023-03-10T02:35:51.098Z,13.58
2023-03-10T02:36:53.600Z,13.53
2023-03-10T02:37:55.488Z,13.62
2023-03-10T02:38:57.309Z,13.45
2023-03-10T02:39:59.856Z,13.08
2023-03-10T02:41:02.137Z,13.45
2023-03-10T02:42:04.314Z,13.65
2023-03-10T02:43:27.018Z,13.03
2023-03-10T02:44:29.055Z,13.40
2023-03-10T02:45:33.641Z,13.58
2023-03-10T02:46:35.735Z,13.80
2023-03-10T02:47:37.485Z,13.48
2023-03-10T02:48:40.032Z,13.73
2023-03-10T02:49:42.596Z,13.30
2023-03-10T02:50:49.969Z,13.52
2023-03-10T02:51:51.842Z,13.37
2023-03-10T02:53:04.137Z,13.42
2023-03-10T02:54:08.239Z,13.02
2023-03-10T02:55:15.634Z,12.73
2023-03-10T02:56:17.638Z,12.60
2023-03-10T02:57:19.506Z,13.62
2023-03-10T02:58:24.934Z,12.55
2023-03-10T02:59:26.766Z,12.67
2023-03-10T03:00:29.664Z,12.57
2023-03-10T03:01:32.110Z,12.65
2023-03-10T03:02:34.351Z,12.82
2023-03-10T03:03:36.302Z,12.35
2023-03-10T03:04:38.101Z,12.03
2023-03-10T03:05:39.970Z,12.28
2023-03-10T03:06:41.848Z,12.52
2023-03-10T03:07:43.705Z,11.98
2023-03-10T03:08:47.980Z,11.52
2023-03-10T03:09:49.916Z,11.87
2023-03-10T03:10:52.628Z,11.92
2023-03-10T03:11:54.454Z,12.03
2023-03-10T03:12:56.723Z,11.52
2023-03-10T03:13:58.477Z,12.22
2023-03-10T03:15:00.309Z,12.15
2023-03-10T03:16:02.325Z,12.50
2023-03-10T03:17:04.129Z,11.77
2023-03-10T03:18:06.274Z,11.90
2023-03-10T03:19:08.309Z,11.47
2023-03-10T03:20:14.418Z,12.07
2023-03-10T03:21:17.539Z,12.43
2023-03-10T03:22:19.305Z,12.92
2023-03-10T03:23:21.291Z,12.25
2023-03-10T03:24:23.181Z,12.28
2023-03-10T03:25:28.319Z,12.10
2023-03-10T03:26:30.134Z,12.60
2023-03-10T03:27:32.140Z,12.05
2023-03-10T03:28:34.273Z,12.07
2023-03-10T03:29:36.167Z,12.95
2023-03-10T03:30:38.744Z,12.43
2023-03-10T03:31:41.108Z,12.43
2023-03-10T03:32:43.416Z,12.55
2023-03-10T03:33:45.829Z,12.38
2023-03-10T03:34:48.030Z,12.58
2023-03-10T03:35:50.055Z,12.78
2023-03-10T03:36:52.224Z,12.25
2023-03-10T03:37:54.824Z,12.12
2023-03-10T03:38:56.672Z,12.48
2023-03-10T03:39:59.143Z,12.77
2023-03-10T03:41:01.124Z,12.47
2023-03-10T03:42:03.146Z,12.08
2023-03-10T03:43:05.599Z,13.22
2023-03-10T03:44:07.554Z,13.08
2023-03-10T03:45:11.296Z,12.42
2023-03-10T03:46:13.197Z,12.28
2023-03-10T03:47:15.131Z,12.40
2023-03-10T03:48:16.984Z,12.77
2023-03-10T03:49:18.848Z,12.38
2023-03-10T03:50:21.564Z,12.45
2023-03-10T03:51:23.423Z,12.48
2023-03-10T03:52:25.297Z,12.57
2023-03-10T03:53:27.124Z,12.63
2023-03-10T03:54:29.005Z,12.73
2023-03-10T03:55:31.382Z,12.97
2023-03-10T03:56:33.166Z,12.42
2023-03-10T03:57:35.845Z,11.53
2023-03-10T03:58:37.729Z,12.02
2023-03-10T03:59:39.469Z,11.90
2023-03-10T04:00:41.416Z,12.38
2023-03-10T04:01:43.220Z,12.35
2023-03-10T04:02:45.154Z,12.40
2023-03-10T04:03:47.190Z,12.47
2023-03-10T04:04:49.144Z,11.87
2023-03-10T04:05:50.974Z,12.73
2023-03-10T04:06:52.804Z,12.25
2023-03-10T04:07:54.619Z,12.55
2023-03-10T04:08:56.374Z,12.15
2023-03-10T04:09:58.465Z,12.23
2023-03-10T04:11:00.190Z,11.92
2023-03-10T04:12:02.041Z,12.17
2023-03-10T04:13:04.175Z,12.10
2023-03-10T04:14:06.365Z,12.42
2023-03-10T04:15:08.660Z,12.38
2023-03-10T04:16:10.551Z,12.13
2023-03-10T04:17:12.411Z,12.60
2023-03-10T04:18:14.599Z,12.17
2023-03-10T04:19:16.466Z,11.92
2023-03-10T04:20:18.602Z,12.35
2023-03-10T04:21:20.436Z,12.52
2023-03-10T04:22:22.221Z,12.30
2023-03-10T04:23:24.093Z,11.90
2023-03-10T04:24:26.154Z,12.72
2023-03-10T04:25:28.104Z,11.75
2023-03-10T04:26:30.319Z,11.95
2023-03-10T04:27:32.333Z,12.32
2023-03-10T04:28:34.901Z,12.35
2023-03-10T04:29:37.804Z,12.95
2023-03-10T04:30:42.778Z,12.87
2023-03-10T04:31:50.561Z,12.22
2023-03-10T04:33:01.490Z,12.33
2023-03-10T04:34:03.674Z,12.70
2023-03-10T04:35:06.658Z,12.47
2023-03-10T04:36:08.826Z,12.05
2023-03-10T04:37:10.706Z,12.38
2023-03-10T04:38:13.498Z,11.63
2023-03-10T04:39:15.303Z,12.18
2023-03-10T04:40:17.301Z,12.37
2023-03-10T04:41:19.201Z,12.25
2023-03-10T04:42:21.831Z,12.07
2023-03-10T04:43:23.582Z,11.80
2023-03-10T04:44:30.803Z,12.12
2023-03-10T04:45:33.223Z,12.50
2023-03-10T04:46:35.476Z,12.10
2023-03-10T04:47:38.040Z,11.87
2023-03-10T04:48:40.101Z,12.32
2023-03-10T04:49:42.103Z,12.30
2023-03-10T04:50:44.066Z,12.97
2023-03-10T04:51:45.979Z,12.65
2023-03-10T04:52:50.033Z,12.18
2023-03-10T04:53:52.010Z,11.78
2023-03-10T04:54:54.026Z,12.17
2023-03-10T04:55:55.969Z,12.68
2023-03-10T04:56:57.809Z,12.72
2023-03-10T04:57:59.628Z,12.23
2023-03-10T04:59:01.935Z,12.07
2023-03-10T05:00:08.052Z,12.45
2023-03-10T05:01:14.184Z,12.37
2023-03-10T05:02:16.133Z,12.90
2023-03-10T05:03:18.100Z,13.13
2023-03-10T05:04:19.980Z,12.37
2023-03-10T05:05:21.864Z,12.78
2023-03-10T05:06:23.699Z,13.00
2023-03-10T05:07:25.583Z,13.45
2023-03-10T05:08:27.492Z,12.88
2023-03-10T05:09:29.456Z,12.68
2023-03-10T05:10:31.284Z,12.48
2023-03-10T05:11:33.147Z,12.82
2023-03-10T05:12:35.035Z,12.75
2023-03-10T05:13:37.137Z,12.13
2023-03-10T05:14:39.064Z,12.25
2023-03-10T05:15:41.564Z,13.00
2023-03-10T05:16:43.478Z,12.72
2023-03-10T05:17:46.230Z,12.82
2023-03-10T05:18:49.570Z,12.98
2023-03-10T05:19:51.370Z,12.70
2023-03-10T05:20:54.641Z,13.38
2023-03-10T05:21:56.588Z,12.45
2023-03-10T05:22:58.410Z,12.18
2023-03-10T05:24:00.415Z,12.22
2023-03-10T05:25:02.344Z,13.02
2023-03-10T05:26:05.956Z,12.57
2023-03-10T05:27:08.761Z,12.27
2023-03-10T05:28:10.621Z,12.63
2023-03-10T05:29:12.716Z,12.73
2023-03-10T05:30:16.018Z,12.43
2023-03-10T05:31:18.083Z,12.48
2023-03-10T05:32:19.971Z,13.58
2023-03-10T05:33:21.763Z,15.15
2023-03-10T05:34:25.384Z,14.80
2023-03-10T05:35:27.186Z,15.35
2023-03-10T05:36:29.122Z,15.72
2023-03-10T05:37:30.989Z,16.17
2023-03-10T05:38:32.977Z,16.70
2023-03-10T05:39:34.925Z,16.13
2023-03-10T05:40:36.767Z,17.30
2023-03-10T05:41:38.741Z,16.98
2023-03-10T05:42:40.563Z,17.00
2023-03-10T05:43:42.443Z,17.63
2023-03-10T05:44:44.297Z,17.05
2023-03-10T05:45:46.191Z,16.37
2023-03-10T05:46:48.058Z,17.10
2023-03-10T05:47:49.914Z,16.78
2023-03-10T05:48:51.746Z,17.67
2023-03-10T05:49:53.599Z,18.45
2023-03-10T05:50:59.393Z,18.15
2023-03-10T05:52:01.276Z,18.63
2023-03-10T05:53:03.138Z,18.07
2023-03-10T05:54:06.336Z,18.98
2023-03-10T05:55:13.303Z,18.92
2023-03-10T05:56:18.065Z,19.40
2023-03-10T05:57:19.866Z,19.23
2023-03-10T05:58:22.194Z,18.80
2023-03-10T05:59:24.116Z,20.17
2023-03-10T06:00:26.301Z,20.67
2023-03-10T06:01:28.225Z,22.40
2023-03-10T06:02:30.106Z,22.98
2023-03-10T06:03:32.103Z,22.55
2023-03-10T06:04:34.058Z,22.15
2023-03-10T06:05:35.916Z,22.98
2023-03-10T06:06:38.489Z,20.82
2023-03-10T06:07:40.932Z,19.83
2023-03-10T06:08:43.167Z,19.42
2023-03-10T06:09:44.994Z,18.50
2023-03-10T06:10:46.870Z,18.15
2023-03-10T06:11:48.760Z,17.78
2023-03-10T06:12:50.645Z,17.23
2023-03-10T06:13:52.691Z,17.73
2023-03-10T06:14:54.524Z,16.78
2023-03-10T06:15:59.303Z,17.35
2023-03-10T06:17:01.603Z,16.22
2023-03-10T06:18:03.553Z,16.82
2023-03-10T06:19:05.411Z,17.73
2023-03-10T06:20:07.489Z,17.97
2023-03-10T06:21:12.939Z,17.63
2023-03-10T06:22:14.859Z,18.88
2023-03-10T06:23:17.938Z,18.85
2023-03-10T06:24:19.757Z,19.03
2023-03-10T06:25:21.583Z,18.87
2023-03-10T06:26:24.367Z,19.40
2023-03-10T06:27:26.358Z,20.22
2023-03-10T06:28:33.060Z,19.73
2023-03-10T06:29:35.338Z,20.30
2023-03-10T06:30:37.131Z,19.52
2023-03-10T06:31:39.005Z,19.60
2023-03-10T06:32:41.166Z,20.20
2023-03-10T06:33:43.117Z,19.58
2023-03-10T06:34:44.950Z,19.27
2023-03-10T06:35:46.775Z,19.93
2023-03-10T06:36:48.678Z,19.28
2023-03-10T06:37:50.621Z,20.55
2023-03-10T06:38:53.699Z,19.98
2023-03-10T06:39:55.586Z,19.72
2023-03-10T06:40:58.088Z,19.15
2023-03-10T06:42:01.159Z,19.83
2023-03-10T06:43:03.015Z,19.60
2023-03-10T06:44:05.042Z,19.58
2023-03-10T06:45:08.600Z,20.43
2023-03-10T06:46:11.877Z,20.08
2023-03-10T06:47:13.754Z,21.35
2023-03-10T06:48:16.074Z,22.45
2023-03-10T06:49:18.058Z,21.48
2023-03-10T06:50:19.904Z,21.95
2023-03-10T06:51:23.231Z,21.18
2023-03-10T06:52:25.082Z,21.43
2023-03-10T06:53:29.899Z,21.90
2023-03-10T06:54:31.739Z,21.73
2023-03-10T06:55:33.532Z,21.73
2023-03-10T06:56:35.783Z,21.28
2023-03-10T06:57:37.976Z,21.63
2023-03-10T06:58:40.676Z,21.70
2023-03-10T06:59:43.137Z,20.77
2023-03-10T07:00:44.977Z,20.37
2023-03-10T07:01:46.814Z,19.28
2023-03-10T07:02:48.750Z,18.68
2023-03-10T07:03:50.639Z,20.62
2023-03-10T07:04:52.644Z,20.20
2023-03-10T07:06:00.645Z,19.47
2023-03-10T07:07:02.509Z,20.05
2023-03-10T07:08:04.510Z,19.93
2023-03-10T07:09:06.379Z,20.27
2023-03-10T07:10:09.019Z,19.52
2023-03-10T07:11:14.589Z,20.40
2023-03-10T07:12:19.851Z,20.15
2023-03-10T07:13:24.405Z,20.42
2023-03-10T07:14:28.591Z,20.10
2023-03-10T07:15:30.476Z,20.32
2023-03-10T07:16:32.676Z,21.02
2023-03-10T07:17:34.907Z,20.97
2023-03-10T07:18:36.924Z,20.02
2023-03-10T07:19:38.977Z,19.52
2023-03-10T07:20:42.704Z,19.45
2023-03-10T07:21:46.758Z,19.65
2023-03-10T07:22:48.955Z,20.35
2023-03-10T07:23:53.783Z,20.75
2023-03-10T07:24:56.490Z,19.20
2023-03-10T07:25:58.438Z,20.38
2023-03-10T07:27:01.184Z,19.82
2023-03-10T07:28:07.487Z,18.95
2023-03-10T07:29:09.474Z,19.60
2023-03-10T07:30:11.908Z,18.53
2023-03-10T07:31:14.758Z,18.65
2023-03-10T07:32:17.421Z,17.88
2023-03-10T07:33:19.586Z,18.33
2023-03-10T07:34:21.697Z,16.92
2023-03-10T07:35:26.655Z,17.92
2023-03-10T07:36:29.272Z,18.28
2023-03-10T07:37:31.281Z,17.80
2023-03-10T07:38:33.376Z,17.43
2023-03-10T07:39:35.355Z,16.83
2023-03-10T07:40:39.613Z,17.33
2023-03-10T07:41:41.667Z,17.55
2023-03-10T07:42:44.057Z,16.37
2023-03-10T07:43:46.283Z,17.42
2023-03-10T07:44:50.683Z,16.88
2023-03-10T07:45:55.264Z,17.37
2023-03-10T07:46:57.881Z,17.00
2023-03-10T07:47:59.754Z,16.65
2023-03-10T07:49:04.444Z,16.77
2023-03-10T07:50:06.763Z,16.92
2023-03-10T07:51:09.409Z,17.88
2023-03-10T07:52:11.424Z,17.00
2023-03-10T07:53:13.350Z,16.05
2023-03-10T07:54:17.748Z,16.80
2023-03-10T07:55:19.627Z,16.63
2023-03-10T07:56:21.647Z,16.63
2023-03-10T07:57:23.511Z,16.62
2023-03-10T07:58:25.774Z,17.47
2023-03-10T07:59:27.815Z,16.73
2023-03-10T08:00:30.155Z,16.73
2023-03-10T08:01:32.058Z,16.68
2023-03-10T08:02:34.323Z,15.92
2023-03-10T08:03:36.305Z,16.50
2023-03-10T08:04:38.451Z,15.83
2023-03-10T08:05:45.724Z,15.75
2023-03-10T08:06:47.843Z,16.27
2023-03-10T08:07:49.774Z,15.82
2023-03-10T08:08:55.169Z,16.37
2023-03-10T08:09:57.288Z,16.08
2023-03-10T08:11:05.697Z,16.28
2023-03-10T08:12:08.153Z,16.67
2023-03-10T08:13:19.069Z,15.97
2023-03-10T08:14:26.440Z,15.90
2023-03-10T08:15:31.269Z,14.63
2023-03-10T08:16:33.256Z,15.27
2023-03-10T08:17:35.905Z,15.73
2023-03-10T08:18:39.267Z,15.07
2023-03-10T08:19:41.220Z,15.62
2023-03-10T08:20:52.314Z,15.25
2023-03-10T08:21:56.114Z,15.23
2023-03-10T08:23:00.257Z,15.68
2023-03-10T08:24:02.165Z,15.68
2023-03-10T08:25:05.024Z,14.58
2023-03-10T08:26:09.497Z,15.23
2023-03-10T08:27:12.809Z,14.77
2023-03-10T08:28:14.723Z,15.47
2023-03-10T08:29:16.915Z,15.75
2023-03-10T08:30:20.551Z,16.00
2023-03-10T08:31:23.179Z,15.70
2023-03-10T08:32:27.635Z,15.20
2023-03-10T08:33:30.833Z,15.85
2023-03-10T08:34:34.471Z,15.07
2023-03-10T08:35:37.302Z,14.95
2023-03-10T08:36:40.224Z,15.52
2023-03-10T08:37:43.331Z,15.63
2023-03-10T08:38:46.552Z,15.27
2023-03-10T08:39:50.068Z,14.75
2023-03-10T08:40:52.201Z,15.25
2023-03-10T08:41:55.114Z,15.40
2023-03-10T08:42:57.441Z,15.47
2023-03-10T08:44:00.286Z,15.38
2023-03-10T08:45:03.653Z,16.25
2023-03-10T08:46:08.593Z,15.58
2023-03-10T08:47:12.151Z,15.40
2023-03-10T08:48:15.981Z,14.83
2023-03-10T08:49:20.261Z,15.97
2023-03-10T08:50:22.203Z,15.52
2023-03-10T08:51:24.540Z,15.52
2023-03-10T08:52:26.884Z,14.98
2023-03-10T08:53:28.805Z,15.72
2023-03-10T08:54:32.630Z,14.48
2023-03-10T08:55:34.642Z,15.17
2023-03-10T08:56:36.935Z,15.42
2023-03-10T08:57:38.846Z,15.12
2023-03-10T08:58:40.750Z,14.37
2023-03-10T08:59:42.694Z,14.88
2023-03-10T09:00:45.053Z,14.72
2023-03-10T09:01:47.390Z,14.98
2023-03-10T09:02:49.321Z,15.53
2023-03-10T09:03:51.299Z,15.10
2023-03-10T09:04:53.419Z,14.53
2023-03-10T09:05:55.568Z,14.38
2023-03-10T09:06:58.248Z,14.33
2023-03-10T09:08:00.162Z,14.70
2023-03-10T09:09:03.024Z,14.37
2023-03-10T09:10:05.421Z,12.97
2023-03-10T09:11:08.828Z,12.45
2023-03-10T09:12:11.544Z,11.75
2023-03-10T09:13:18.174Z,12.22
2023-03-10T09:14:20.657Z,11.73
2023-03-10T09:15:22.851Z,11.85
2023-03-10T09:16:25.200Z,11.15
2023-03-10T09:17:27.258Z,11.63
2023-03-10T09:18:29.297Z,11.68
2023-03-10T09:19:31.267Z,11.98
2023-03-10T09:20:33.146Z,11.85
2023-03-10T09:21:41.183Z,12.65
2023-03-10T09:22:43.381Z,12.48
2023-03-10T09:23:48.373Z,11.18
2023-03-10T09:24:50.215Z,10.88
2023-03-10T09:25:52.120Z,11.17
2023-03-10T09:26:55.929Z,10.67
2023-03-10T09:27:58.499Z,10.28
2023-03-10T09:29:01.327Z,10.25
2023-03-10T09:30:03.477Z,10.48
2023-03-10T09:31:09.068Z,9.90
2023-03-10T09:32:11.173Z,10.12
2023-03-10T09:33:21.230Z,10.35
2023-03-10T09:34:24.506Z,10.28
2023-03-10T09:35:29.290Z,9.88
2023-03-10T09:36:31.998Z,9.77
2023-03-10T09:37:44.141Z,10.68
2023-03-10T09:38:48.569Z,10.90
2023-03-10T09:39:50.525Z,10.60
2023-03-10T09:41:15.622Z,11.02
2023-03-10T09:42:38.062Z,12.43
2023-03-10T09:43:50.765Z,10.63
2023-03-10T09:45:08.275Z,10.85
2023-03-10T09:46:35.922Z,10.15
2023-03-10T09:47:50.148Z,10.78
2023-03-10T09:49:10.125Z,10.60
2023-03-10T09:50:24.279Z,10.68
2023-03-10T09:51:28.938Z,9.85
2023-03-10T09:52:45.562Z,9.37
2023-03-10T09:53:58.873Z,9.77
2023-03-10T09:55:06.555Z,8.63
2023-03-10T09:56:15.911Z,8.82
2023-03-10T09:57:21.528Z,9.43
2023-03-10T09:58:33.985Z,9.82
2023-03-10T09:59:39.317Z,9.82
2023-03-10T10:00:43.572Z,10.03
2023-03-10T10:01:48.197Z,9.70
2023-03-10T10:02:52.089Z,9.55
2023-03-10T10:04:01.602Z,9.37
2023-03-10T10:05:20.160Z,7.83
2023-03-10T10:06:32.765Z,6.77
2023-03-10T10:07:44.259Z,6.63
2023-03-10T10:09:03.601Z,7.10
2023-03-10T10:10:14.570Z,7.15
2023-03-10T10:11:18.023Z,7.00
2023-03-10T10:12:25.001Z,7.00
2023-03-10T10:13:30.659Z,6.75
2023-03-10T10:14:33.282Z,7.20
2023-03-10T10:15:37.293Z,7.23
2023-03-10T10:16:49.350Z,6.92
2023-03-10T10:18:02.629Z,6.57
2023-03-10T10:19:28.818Z,6.88
2023-03-10T10:20:39.492Z,7.22
2023-03-10T10:21:55.665Z,7.00
2023-03-10T10:22:57.477Z,7.92
2023-03-10T10:23:59.438Z,7.93
2023-03-10T10:25:18.084Z,7.85
2023-03-10T10:26:27.391Z,7.48
2023-03-10T10:27:31.717Z,6.60
2023-03-10T10:28:42.075Z,6.73
2023-03-10T10:29:47.112Z,6.93
2023-03-10T10:30:49.568Z,6.33
2023-03-10T10:32:08.780Z,6.05
2023-03-10T10:33:12.747Z,6.28
2023-03-10T10:34:23.686Z,6.37
2023-03-10T10:35:28.055Z,6.30
2023-03-10T10:36:40.071Z,6.63
2023-03-10T10:37:43.116Z,6.37
2023-03-10T10:38:53.930Z,6.68
2023-03-10T10:39:57.463Z,7.17
2023-03-10T10:41:07.469Z,7.32
2023-03-10T10:42:30.419Z,7.78
2023-03-10T10:43:41.295Z,8.30
2023-03-10T10:44:44.959Z,8.30
2023-03-10T10:45:58.252Z,8.68
2023-03-10T10:47:00.180Z,8.22
2023-03-10T10:48:02.642Z,7.15
2023-03-10T10:49:25.003Z,7.28
2023-03-10T10:50:29.836Z,7.37
2023-03-10T10:51:35.922Z,6.98
2023-03-10T10:52:38.084Z,5.75
2023-03-10T10:53:42.399Z,5.35
2023-03-10T10:54:56.302Z,5.22
2023-03-10T10:56:17.669Z,5.60
2023-03-10T10:57:21.602Z,4.72
2023-03-10T10:58:35.098Z,4.62
2023-03-10T10:59:37.090Z,4.45
2023-03-10T11:00:39.389Z,4.35
2023-03-10T11:01:52.109Z,4.68
2023-03-10T11:02:54.353Z,5.15
2023-03-10T11:04:17.099Z,4.57
2023-03-10T11:05:22.422Z,4.22
2023-03-10T11:06:27.259Z,4.82
2023-03-10T11:07:29.044Z,4.77
2023-03-10T11:08:35.082Z,4.92
2023-03-10T11:09:37.137Z,5.18
2023-03-10T11:10:40.846Z,5.25
2023-03-10T11:11:57.533Z,5.45
2023-03-10T11:13:21.061Z,5.58
2023-03-10T11:14:31.511Z,5.85
2023-03-10T11:15:37.732Z,5.97
2023-03-10T11:16:50.805Z,6.03
2023-03-10T11:18:18.864Z,6.70
2023-03-10T11:19:55.024Z,6.33
2023-03-10T11:21:23.940Z,6.72
2023-03-10T11:22:41.885Z,6.78
2023-03-10T11:23:58.107Z,7.05
2023-03-10T11:25:05.478Z,6.63
2023-03-10T11:26:16.234Z,6.58
2023-03-10T11:27:50.298Z,7.43
2023-03-10T11:29:14.002Z,6.85
2023-03-10T11:30:29.747Z,7.85
2023-03-10T11:31:55.750Z,7.98
2023-03-10T11:33:11.296Z,8.03
2023-03-10T11:34:23.423Z,8.17
2023-03-10T11:35:38.144Z,7.98
2023-03-10T11:37:17.052Z,8.75
2023-03-10T11:38:38.475Z,8.70
2023-03-10T11:40:15.093Z,7.83
2023-03-10T11:41:22.528Z,8.97
2023-03-10T11:42:43.237Z,7.90
2023-03-10T11:44:03.490Z,9.02
2023-03-10T11:45:44.236Z,9.23
2023-03-10T11:47:20.804Z,9.07
2023-03-10T11:48:41.714Z,9.72
2023-03-10T11:49:47.388Z,8.80
2023-03-10T11:50:56.274Z,8.42
2023-03-10T11:52:05.506Z,8.27
2023-03-10T11:53:19.581Z,8.63
2023-03-10T11:54:29.089Z,8.12
2023-03-10T11:55:32.106Z,8.15
2023-03-10T11:56:33.989Z,7.85
2023-03-10T11:57:44.740Z,7.53
2023-03-10T11:58:52.167Z,7.25
2023-03-10T11:59:59.929Z,7.87
2023-03-10T12:01:02.195Z,7.88
2023-03-10T12:02:24.673Z,7.33
2023-03-10T12:03:48.573Z,7.38
2023-03-10T12:04:59.870Z,8.23
2023-03-10T12:06:03.215Z,8.80
2023-03-10T12:07:13.417Z,8.25
2023-03-10T12:08:16.851Z,8.30
2023-03-10T12:09:30.159Z,8.05
2023-03-10T12:10:37.423Z,7.25
2023-03-10T12:11:39.616Z,7.05
2023-03-10T12:12:46.854Z,6.98
2023-03-10T12:13:52.788Z,7.38
2023-03-10T12:14:55.389Z,7.20
2023-03-10T12:16:00.010Z,7.30
2023-03-10T12:17:04.234Z,7.22
2023-03-10T12:18:07.501Z,7.33
2023-03-10T12:19:09.470Z,6.97
2023-03-10T12:20:14.162Z,7.47
2023-03-10T12:21:16.177Z,6.70
2023-03-10T12:22:20.693Z,6.98
2023-03-10T12:23:22.535Z,6.73
2023-03-10T12:24:46.817Z,6.10
2023-03-10T12:25:48.995Z,6.13
2023-03-10T12:26:59.945Z,6.40
2023-03-10T12:28:17.061Z,6.33
2023-03-10T12:29:23.049Z,6.28
2023-03-10T12:30:43.532Z,6.00
2023-03-10T12:31:47.306Z,5.95
2023-03-10T12:32:49.237Z,6.32
2023-03-10T12:33:52.464Z,6.15
2023-03-10T12:35:28.388Z,6.00
2023-03-10T12:36:32.549Z,6.05
2023-03-10T12:37:34.433Z,6.32
2023-03-10T12:38:46.143Z,6.85
2023-03-10T12:39:48.129Z,6.83
2023-03-10T12:40:51.526Z,6.42
2023-03-10T12:41:55.270Z,6.33
2023-03-10T12:42:57.226Z,6.33
2023-03-10T12:44:00.278Z,6.27
2023-03-10T12:45:17.420Z,6.32
2023-03-10T12:46:23.573Z,6.45
2023-03-10T12:47:26.440Z,6.13
2023-03-10T12:48:28.792Z,6.18
2023-03-10T12:49:39.032Z,5.95
2023-03-10T12:51:05.042Z,6.52
2023-03-10T12:52:06.875Z,6.05
2023-03-10T12:53:11.681Z,6.20
2023-03-10T12:54:31.848Z,6.20
2023-03-10T12:55:33.810Z,5.63
2023-03-10T12:56:42.007Z,6.12
2023-03-10T12:57:54.088Z,6.48
2023-03-10T12:59:06.478Z,6.55
2023-03-10T13:00:12.488Z,6.25
2023-03-10T13:01:21.069Z,6.18
2023-03-10T13:02:36.545Z,6.17
2023-03-10T13:03:45.113Z,6.28
2023-03-10T13:04:46.906Z,5.93
2023-03-10T13:06:15.199Z,6.13
2023-03-10T13:07:18.085Z,6.10
2023-03-10T13:08:24.765Z,6.67
2023-03-10T13:09:35.919Z,6.37
2023-03-10T13:10:38.529Z,6.43
2023-03-10T13:11:43.473Z,6.25
2023-03-10T13:12:48.677Z,6.33
2023-03-10T13:13:54.211Z,5.95
2023-03-10T13:14:58.859Z,6.52
2023-03-10T13:16:06.749Z,7.03
2023-03-10T13:17:26.509Z,7.00
2023-03-10T13:18:28.794Z,6.75
2023-03-10T13:19:33.221Z,6.43
2023-03-10T13:20:36.409Z,6.38
2023-03-10T13:21:39.327Z,6.58
2023-03-10T13:22:55.405Z,6.93
2023-03-10T13:24:02.489Z,7.42
2023-03-10T13:25:07.963Z,7.58
2023-03-10T13:26:16.383Z,7.57
2023-03-10T13:27:19.668Z,7.57
2023-03-10T13:28:27.034Z,7.77
2023-03-10T13:29:28.950Z,8.33
2023-03-10T13:30:30.738Z,7.90
2023-03-10T13:31:34.426Z,8.27
2023-03-10T13:32:36.420Z,8.63
2023-03-10T13:33:50.197Z,9.10
2023-03-10T13:34:54.225Z,8.58
2023-03-10T13:35:56.470Z,8.60
2023-03-10T13:37:06.701Z,8.82
2023-03-10T13:38:24.504Z,8.80
2023-03-10T13:39:28.134Z,8.98
2023-03-10T13:40:30.085Z,8.98
2023-03-10T13:41:37.354Z,9.28
2023-03-10T13:42:44.132Z,8.73
2023-03-10T13:43:51.295Z,8.95
2023-03-10T13:44:55.056Z,9.27
2023-03-10T13:45:59.182Z,9.02
2023-03-10T13:47:04.660Z,8.63
2023-03-10T13:48:06.963Z,9.32
2023-03-10T13:49:08.969Z,9.78
2023-03-10T13:50:15.357Z,10.10
2023-03-10T13:51:17.515Z,10.00
2023-03-10T13:52:22.523Z,9.73
2023-03-10T13:53:27.649Z,10.12
2023-03-10T13:54:34.477Z,10.60
2023-03-10T13:55:40.620Z,10.73
2023-03-10T13:56:43.757Z,10.57
2023-03-10T13:57:47.645Z,11.52
2023-03-10T13:58:52.601Z,10.83
2023-03-10T13:59:56.384Z,10.23
2023-03-10T14:01:00.788Z,10.18
2023-03-10T14:02:04.213Z,10.80
2023-03-10T14:03:08.173Z,10.47
2023-03-10T14:04:16.588Z,10.47
2023-03-10T14:05:39.889Z,11.00